sensor_id;sensor_type;location;lat;lon;timestamp;P1;durP1;ratioP1;P2;durP2;ratioP2
66707;SDS011;53622;0.000;0.000;2022-09-28T00:00:10;3.25;;;1.10;;
66707;SDS011;53622;0.000;0.000;2022-09-28T00:02:40;1.13;;;0.80;;
66707;SDS011;53622;0.000;0.000;2022-09-28T00:05:09;1.60;;;1.00;;
66707;SDS011;53622;0.000;0.000;2022-09-28T00:07:41;1.95;;;1.05;;
66707;SDS011;53622;0.000;0.000;2022-09-28T00:10:10;2.10;;;1.20;;
66707;SDS011;53622;0.000;0.000;2022-09-28T00:12:39;2.20;;;0.90;;
66707;SDS011;53622;0.000;0.000;2022-09-28T00:15:09;2.83;;;0.90;;
66707;SDS011;53622;0.000;0.000;2022-09-28T00:17:38;1.63;;;0.88;;
66707;SDS011;53622;0.000;0.000;2022-09-28T00:20:08;1.90;;;1.00;;
66707;SDS011;53622;0.000;0.000;2022-09-28T00:22:38;1.38;;;1.02;;
66707;SDS011;53622;0.000;0.000;2022-09-28T00:25:09;1.67;;;1.02;;
66707;SDS011;53622;0.000;0.000;2022-09-28T00:27:38;1.15;;;0.85;;
66707;SDS011;53622;0.000;0.000;2022-09-28T00:30:08;1.33;;;0.93;;
66707;SDS011;53622;0.000;0.000;2022-09-28T00:32:37;1.63;;;0.90;;
66707;SDS011;53622;0.000;0.000;2022-09-28T00:35:08;1.42;;;0.85;;
66707;SDS011;53622;0.000;0.000;2022-09-28T00:37:38;0.93;;;0.75;;
66707;SDS011;53622;0.000;0.000;2022-09-28T00:40:08;0.93;;;0.70;;
66707;SDS011;53622;0.000;0.000;2022-09-28T00:42:38;0.90;;;0.70;;
66707;SDS011;53622;0.000;0.000;2022-09-28T00:45:09;1.27;;;1.00;;
66707;SDS011;53622;0.000;0.000;2022-09-28T00:47:42;1.00;;;0.80;;
66707;SDS011;53622;0.000;0.000;2022-09-28T00:50:21;2.55;;;0.80;;
66707;SDS011;53622;0.000;0.000;2022-09-28T00:52:56;1.88;;;0.90;;
66707;SDS011;53622;0.000;0.000;2022-09-28T00:55:33;1.33;;;0.80;;
66707;SDS011;53622;0.000;0.000;2022-09-28T00:58:08;1.50;;;0.77;;
66707;SDS011;53622;0.000;0.000;2022-09-28T01:00:41;1.20;;;0.65;;
66707;SDS011;53622;0.000;0.000;2022-09-28T01:03:10;1.08;;;0.73;;
66707;SDS011;53622;0.000;0.000;2022-09-28T01:05:40;0.80;;;0.80;;
66707;SDS011;53622;0.000;0.000;2022-09-28T01:08:12;1.88;;;0.95;;
66707;SDS011;53622;0.000;0.000;2022-09-28T01:10:45;1.35;;;0.90;;
66707;SDS011;53622;0.000;0.000;2022-09-28T01:13:18;1.35;;;0.80;;
66707;SDS011;53622;0.000;0.000;2022-09-28T01:16:03;1.10;;;0.77;;
66707;SDS011;53622;0.000;0.000;2022-09-28T01:18:42;1.52;;;0.80;;
66707;SDS011;53622;0.000;0.000;2022-09-28T01:21:19;2.50;;;0.73;;
66707;SDS011;53622;0.000;0.000;2022-09-28T01:24:13;1.98;;;0.98;;
66707;SDS011;53622;0.000;0.000;2022-09-28T01:26:56;2.30;;;0.93;;
66707;SDS011;53622;0.000;0.000;2022-09-28T01:29:34;1.58;;;0.70;;
66707;SDS011;53622;0.000;0.000;2022-09-28T01:32:14;1.65;;;0.90;;
66707;SDS011;53622;0.000;0.000;2022-09-28T01:34:52;0.95;;;0.75;;
66707;SDS011;53622;0.000;0.000;2022-09-28T01:37:28;2.28;;;0.82;;
66707;SDS011;53622;0.000;0.000;2022-09-28T01:40:04;1.33;;;0.80;;
66707;SDS011;53622;0.000;0.000;2022-09-28T01:42:38;1.88;;;0.80;;
66707;SDS011;53622;0.000;0.000;2022-09-28T01:45:10;1.05;;;0.73;;
66707;SDS011;53622;0.000;0.000;2022-09-28T01:47:44;0.65;;;0.60;;
66707;SDS011;53622;0.000;0.000;2022-09-28T01:50:16;1.30;;;0.80;;
66707;SDS011;53622;0.000;0.000;2022-09-28T01:52:50;1.48;;;0.90;;
66707;SDS011;53622;0.000;0.000;2022-09-28T01:55:26;1.80;;;0.70;;
66707;SDS011;53622;0.000;0.000;2022-09-28T01:58:02;1.63;;;0.90;;
66707;SDS011;53622;0.000;0.000;2022-09-28T02:00:38;0.80;;;0.55;;
66707;SDS011;53622;0.000;0.000;2022-09-28T02:03:16;0.70;;;0.70;;
66707;SDS011;53622;0.000;0.000;2022-09-28T02:05:55;1.55;;;0.70;;
66707;SDS011;53622;0.000;0.000;2022-09-28T02:08:27;1.23;;;0.70;;
66707;SDS011;53622;0.000;0.000;2022-09-28T02:11:03;1.17;;;0.75;;
66707;SDS011;53622;0.000;0.000;2022-09-28T02:13:39;1.55;;;0.80;;
66707;SDS011;53622;0.000;0.000;2022-09-28T02:16:12;1.35;;;0.60;;
66707;SDS011;53622;0.000;0.000;2022-09-28T02:18:44;1.48;;;0.93;;
66707;SDS011;53622;0.000;0.000;2022-09-28T02:21:15;0.90;;;0.73;;
66707;SDS011;53622;0.000;0.000;2022-09-28T02:23:51;1.05;;;0.80;;
66707;SDS011;53622;0.000;0.000;2022-09-28T02:26:26;1.52;;;0.70;;
66707;SDS011;53622;0.000;0.000;2022-09-28T02:29:01;1.00;;;0.73;;
66707;SDS011;53622;0.000;0.000;2022-09-28T02:31:30;2.75;;;1.00;;
66707;SDS011;53622;0.000;0.000;2022-09-28T02:34:00;0.68;;;0.65;;
66707;SDS011;53622;0.000;0.000;2022-09-28T02:36:29;1.27;;;0.70;;
66707;SDS011;53622;0.000;0.000;2022-09-28T02:39:00;0.98;;;0.50;;
66707;SDS011;53622;0.000;0.000;2022-09-28T02:41:37;1.10;;;0.80;;
66707;SDS011;53622;0.000;0.000;2022-09-28T02:44:25;1.27;;;0.77;;
66707;SDS011;53622;0.000;0.000;2022-09-28T02:47:13;1.58;;;0.60;;
66707;SDS011;53622;0.000;0.000;2022-09-28T02:49:52;1.30;;;0.77;;
66707;SDS011;53622;0.000;0.000;2022-09-28T02:52:32;1.70;;;0.70;;
66707;SDS011;53622;0.000;0.000;2022-09-28T02:55:19;1.20;;;0.60;;
66707;SDS011;53622;0.000;0.000;2022-09-28T03:00:50;0.88;;;0.60;;
66707;SDS011;53622;0.000;0.000;2022-09-28T03:03:27;0.65;;;0.52;;
66707;SDS011;53622;0.000;0.000;2022-09-28T03:06:02;0.63;;;0.50;;
66707;SDS011;53622;0.000;0.000;2022-09-28T03:08:43;0.85;;;0.65;;
66707;SDS011;53622;0.000;0.000;2022-09-28T03:11:18;0.80;;;0.60;;
66707;SDS011;53622;0.000;0.000;2022-09-28T03:13:50;0.88;;;0.50;;
66707;SDS011;53622;0.000;0.000;2022-09-28T03:16:26;1.13;;;0.70;;
66707;SDS011;53622;0.000;0.000;2022-09-28T03:18:59;0.60;;;0.57;;
66707;SDS011;53622;0.000;0.000;2022-09-28T03:21:29;1.58;;;0.50;;
66707;SDS011;53622;0.000;0.000;2022-09-28T03:23:58;1.00;;;0.60;;
66707;SDS011;53622;0.000;0.000;2022-09-28T03:26:29;0.80;;;0.68;;
66707;SDS011;53622;0.000;0.000;2022-09-28T03:28:58;0.55;;;0.52;;
66707;SDS011;53622;0.000;0.000;2022-09-28T03:31:28;0.95;;;0.70;;
66707;SDS011;53622;0.000;0.000;2022-09-28T03:33:58;0.80;;;0.50;;
66707;SDS011;53622;0.000;0.000;2022-09-28T03:36:27;1.00;;;0.60;;
66707;SDS011;53622;0.000;0.000;2022-09-28T03:38:56;1.15;;;0.70;;
66707;SDS011;53622;0.000;0.000;2022-09-28T03:41:26;1.05;;;0.60;;
66707;SDS011;53622;0.000;0.000;2022-09-28T03:43:55;1.45;;;0.60;;
66707;SDS011;53622;0.000;0.000;2022-09-28T03:46:26;0.55;;;0.50;;
66707;SDS011;53622;0.000;0.000;2022-09-28T03:49:02;0.75;;;0.50;;
66707;SDS011;53622;0.000;0.000;2022-09-28T03:51:32;1.70;;;0.70;;
66707;SDS011;53622;0.000;0.000;2022-09-28T03:54:01;1.45;;;0.60;;
66707;SDS011;53622;0.000;0.000;2022-09-28T03:56:30;0.70;;;0.60;;
66707;SDS011;53622;0.000;0.000;2022-09-28T03:59:01;1.10;;;0.60;;
66707;SDS011;53622;0.000;0.000;2022-09-28T04:01:32;1.10;;;0.60;;
66707;SDS011;53622;0.000;0.000;2022-09-28T04:04:01;1.75;;;0.60;;
66707;SDS011;53622;0.000;0.000;2022-09-28T04:06:30;1.30;;;0.60;;
66707;SDS011;53622;0.000;0.000;2022-09-28T04:09:00;3.45;;;0.70;;
66707;SDS011;53622;0.000;0.000;2022-09-28T04:11:29;5.72;;;0.93;;
66707;SDS011;53622;0.000;0.000;2022-09-28T04:14:14;2.80;;;0.68;;
66707;SDS011;53622;0.000;0.000;2022-09-28T04:16:44;1.77;;;0.60;;
66707;SDS011;53622;0.000;0.000;2022-09-28T04:19:15;2.28;;;0.60;;
66707;SDS011;53622;0.000;0.000;2022-09-28T04:22:00;4.35;;;0.73;;
66707;SDS011;53622;0.000;0.000;2022-09-28T04:24:29;2.22;;;0.50;;
66707;SDS011;53622;0.000;0.000;2022-09-28T04:26:59;2.47;;;0.60;;
66707;SDS011;53622;0.000;0.000;2022-09-28T04:29:42;3.92;;;0.77;;
66707;SDS011;53622;0.000;0.000;2022-09-28T04:32:14;3.17;;;0.90;;
66707;SDS011;53622;0.000;0.000;2022-09-28T04:34:43;2.95;;;0.68;;
66707;SDS011;53622;0.000;0.000;2022-09-28T04:37:12;1.85;;;0.75;;
66707;SDS011;53622;0.000;0.000;2022-09-28T04:39:43;6.82;;;1.05;;
66707;SDS011;53622;0.000;0.000;2022-09-28T04:42:17;7.65;;;1.10;;
66707;SDS011;53622;0.000;0.000;2022-09-28T04:44:48;7.00;;;1.10;;
66707;SDS011;53622;0.000;0.000;2022-09-28T04:47:19;3.80;;;1.15;;
66707;SDS011;53622;0.000;0.000;2022-09-28T04:50:14;3.38;;;0.93;;
66707;SDS011;53622;0.000;0.000;2022-09-28T04:53:02;5.78;;;1.02;;
66707;SDS011;53622;0.000;0.000;2022-09-28T04:55:31;5.90;;;1.05;;
66707;SDS011;53622;0.000;0.000;2022-09-28T04:58:02;2.83;;;1.08;;
66707;SDS011;53622;0.000;0.000;2022-09-28T05:00:32;3.10;;;0.95;;
66707;SDS011;53622;0.000;0.000;2022-09-28T05:03:09;5.47;;;1.13;;
66707;SDS011;53622;0.000;0.000;2022-09-28T05:05:57;6.43;;;0.88;;
66707;SDS011;53622;0.000;0.000;2022-09-28T05:08:46;9.13;;;1.30;;
66707;SDS011;53622;0.000;0.000;2022-09-28T05:11:16;4.57;;;1.20;;
66707;SDS011;53622;0.000;0.000;2022-09-28T05:13:46;4.05;;;1.00;;
66707;SDS011;53622;0.000;0.000;2022-09-28T05:16:18;8.15;;;0.93;;
66707;SDS011;53622;0.000;0.000;2022-09-28T05:19:07;3.28;;;1.00;;
66707;SDS011;53622;0.000;0.000;2022-09-28T05:21:38;4.93;;;1.10;;
66707;SDS011;53622;0.000;0.000;2022-09-28T05:24:10;4.18;;;1.15;;
66707;SDS011;53622;0.000;0.000;2022-09-28T05:26:43;5.32;;;1.30;;
66707;SDS011;53622;0.000;0.000;2022-09-28T05:29:13;2.97;;;1.15;;
66707;SDS011;53622;0.000;0.000;2022-09-28T05:32:05;4.43;;;0.82;;
66707;SDS011;53622;0.000;0.000;2022-09-28T05:34:56;6.43;;;1.00;;
66707;SDS011;53622;0.000;0.000;2022-09-28T05:37:37;3.90;;;0.90;;
66707;SDS011;53622;0.000;0.000;2022-09-28T05:40:07;2.03;;;0.90;;
66707;SDS011;53622;0.000;0.000;2022-09-28T05:42:38;4.78;;;1.00;;
66707;SDS011;53622;0.000;0.000;2022-09-28T05:45:08;5.03;;;1.23;;
66707;SDS011;53622;0.000;0.000;2022-09-28T05:47:40;2.85;;;0.95;;
66707;SDS011;53622;0.000;0.000;2022-09-28T05:50:16;2.90;;;1.00;;
66707;SDS011;53622;0.000;0.000;2022-09-28T05:52:45;2.53;;;1.00;;
66707;SDS011;53622;0.000;0.000;2022-09-28T05:55:16;3.60;;;0.88;;
66707;SDS011;53622;0.000;0.000;2022-09-28T05:57:45;3.92;;;0.98;;
66707;SDS011;53622;0.000;0.000;2022-09-28T06:00:14;3.17;;;0.90;;
66707;SDS011;53622;0.000;0.000;2022-09-28T06:02:55;5.95;;;1.33;;
66707;SDS011;53622;0.000;0.000;2022-09-28T06:05:28;2.90;;;1.05;;
66707;SDS011;53622;0.000;0.000;2022-09-28T06:07:58;3.63;;;1.10;;
66707;SDS011;53622;0.000;0.000;2022-09-28T06:10:28;3.55;;;1.20;;
66707;SDS011;53622;0.000;0.000;2022-09-28T06:12:59;3.47;;;1.02;;
66707;SDS011;53622;0.000;0.000;2022-09-28T06:15:30;2.17;;;0.95;;
66707;SDS011;53622;0.000;0.000;2022-09-28T06:18:01;1.83;;;0.88;;
66707;SDS011;53622;0.000;0.000;2022-09-28T06:20:38;4.18;;;0.85;;
66707;SDS011;53622;0.000;0.000;2022-09-28T06:23:15;3.35;;;1.25;;
66707;SDS011;53622;0.000;0.000;2022-09-28T06:25:45;6.22;;;0.95;;
66707;SDS011;53622;0.000;0.000;2022-09-28T06:28:15;2.17;;;0.80;;
66707;SDS011;53622;0.000;0.000;2022-09-28T06:30:44;2.03;;;1.10;;
66707;SDS011;53622;0.000;0.000;2022-09-28T06:33:16;2.47;;;0.98;;
66707;SDS011;53622;0.000;0.000;2022-09-28T06:35:48;2.28;;;0.73;;
66707;SDS011;53622;0.000;0.000;2022-09-28T06:38:18;1.20;;;0.85;;
66707;SDS011;53622;0.000;0.000;2022-09-28T06:40:48;2.65;;;1.00;;
66707;SDS011;53622;0.000;0.000;2022-09-28T06:43:18;3.78;;;1.00;;
66707;SDS011;53622;0.000;0.000;2022-09-28T06:46:06;2.63;;;0.80;;
66707;SDS011;53622;0.000;0.000;2022-09-28T06:49:11;2.90;;;0.98;;
66707;SDS011;53622;0.000;0.000;2022-09-28T06:52:12;1.48;;;0.95;;
66707;SDS011;53622;0.000;0.000;2022-09-28T06:55:00;3.60;;;1.23;;
66707;SDS011;53622;0.000;0.000;2022-09-28T06:57:40;1.85;;;1.10;;
66707;SDS011;53622;0.000;0.000;2022-09-28T07:00:10;4.13;;;1.25;;
66707;SDS011;53622;0.000;0.000;2022-09-28T07:02:43;1.98;;;1.02;;
66707;SDS011;53622;0.000;0.000;2022-09-28T07:05:30;1.40;;;1.05;;
66707;SDS011;53622;0.000;0.000;2022-09-28T07:08:24;2.08;;;1.20;;
66707;SDS011;53622;0.000;0.000;2022-09-28T07:11:03;2.35;;;1.10;;
66707;SDS011;53622;0.000;0.000;2022-09-28T07:13:48;2.05;;;1.25;;
66707;SDS011;53622;0.000;0.000;2022-09-28T07:16:21;2.65;;;1.05;;
66707;SDS011;53622;0.000;0.000;2022-09-28T07:18:58;1.75;;;0.82;;
66707;SDS011;53622;0.000;0.000;2022-09-28T07:21:27;1.48;;;1.20;;
66707;SDS011;53622;0.000;0.000;2022-09-28T07:24:03;2.25;;;1.20;;
66707;SDS011;53622;0.000;0.000;2022-09-28T07:27:02;1.52;;;1.08;;
66707;SDS011;53622;0.000;0.000;2022-09-28T07:29:42;2.08;;;1.10;;
66707;SDS011;53622;0.000;0.000;2022-09-28T07:32:36;4.85;;;1.27;;
66707;SDS011;53622;0.000;0.000;2022-09-28T07:35:25;3.50;;;1.20;;
66707;SDS011;53622;0.000;0.000;2022-09-28T07:37:56;3.13;;;1.08;;
66707;SDS011;53622;0.000;0.000;2022-09-28T07:40:29;3.90;;;1.27;;
66707;SDS011;53622;0.000;0.000;2022-09-28T07:43:17;1.83;;;0.93;;
66707;SDS011;53622;0.000;0.000;2022-09-28T07:45:50;2.95;;;1.10;;
66707;SDS011;53622;0.000;0.000;2022-09-28T07:48:22;2.60;;;1.15;;
66707;SDS011;53622;0.000;0.000;2022-09-28T07:51:21;1.55;;;1.08;;
66707;SDS011;53622;0.000;0.000;2022-09-28T07:54:17;1.15;;;1.05;;
66707;SDS011;53622;0.000;0.000;2022-09-28T07:57:11;1.58;;;1.15;;
66707;SDS011;53622;0.000;0.000;2022-09-28T07:59:52;1.48;;;1.05;;
66707;SDS011;53622;0.000;0.000;2022-09-28T08:02:48;1.25;;;1.05;;
66707;SDS011;53622;0.000;0.000;2022-09-28T08:05:22;3.00;;;1.00;;
66707;SDS011;53622;0.000;0.000;2022-09-28T08:07:52;1.13;;;0.98;;
66707;SDS011;53622;0.000;0.000;2022-09-28T08:10:27;2.90;;;1.17;;
66707;SDS011;53622;0.000;0.000;2022-09-28T08:13:03;2.05;;;1.15;;
66707;SDS011;53622;0.000;0.000;2022-09-28T08:15:35;1.92;;;1.10;;
66707;SDS011;53622;0.000;0.000;2022-09-28T08:18:27;2.03;;;1.40;;
66707;SDS011;53622;0.000;0.000;2022-09-28T08:20:57;1.83;;;1.00;;
66707;SDS011;53622;0.000;0.000;2022-09-28T08:23:43;2.38;;;1.30;;
66707;SDS011;53622;0.000;0.000;2022-09-28T08:26:14;2.30;;;0.90;;
66707;SDS011;53622;0.000;0.000;2022-09-28T08:28:46;2.50;;;1.10;;
66707;SDS011;53622;0.000;0.000;2022-09-28T08:31:38;1.02;;;0.80;;
66707;SDS011;53622;0.000;0.000;2022-09-28T08:34:13;0.88;;;0.80;;
66707;SDS011;53622;0.000;0.000;2022-09-28T08:37:00;2.08;;;1.00;;
66707;SDS011;53622;0.000;0.000;2022-09-28T08:39:50;1.38;;;1.00;;
66707;SDS011;53622;0.000;0.000;2022-09-28T08:42:42;3.28;;;1.00;;
66707;SDS011;53622;0.000;0.000;2022-09-28T08:45:42;1.95;;;1.00;;
66707;SDS011;53622;0.000;0.000;2022-09-28T08:48:44;1.85;;;1.10;;
66707;SDS011;53622;0.000;0.000;2022-09-28T08:52:04;2.45;;;1.02;;
66707;SDS011;53622;0.000;0.000;2022-09-28T08:54:52;2.78;;;1.23;;
66707;SDS011;53622;0.000;0.000;2022-09-28T08:57:32;1.50;;;1.00;;
66707;SDS011;53622;0.000;0.000;2022-09-28T09:00:06;2.05;;;1.15;;
66707;SDS011;53622;0.000;0.000;2022-09-28T09:02:43;1.50;;;1.00;;
66707;SDS011;53622;0.000;0.000;2022-09-28T09:05:18;1.88;;;0.82;;
66707;SDS011;53622;0.000;0.000;2022-09-28T09:08:04;1.88;;;1.05;;
66707;SDS011;53622;0.000;0.000;2022-09-28T09:10:46;1.75;;;1.10;;
66707;SDS011;53622;0.000;0.000;2022-09-28T09:13:31;2.60;;;0.98;;
66707;SDS011;53622;0.000;0.000;2022-09-28T09:16:25;1.88;;;1.10;;
66707;SDS011;53622;0.000;0.000;2022-09-28T09:19:34;2.38;;;1.15;;
66707;SDS011;53622;0.000;0.000;2022-09-28T09:22:26;4.10;;;1.20;;
66707;SDS011;53622;0.000;0.000;2022-09-28T09:25:06;10.00;;;1.80;;
66707;SDS011;53622;0.000;0.000;2022-09-28T09:27:56;7.25;;;1.33;;
66707;SDS011;53622;0.000;0.000;2022-09-28T09:30:51;3.50;;;1.23;;
66707;SDS011;53622;0.000;0.000;2022-09-28T09:33:43;7.25;;;1.35;;
66707;SDS011;53622;0.000;0.000;2022-09-28T09:39:52;3.25;;;1.30;;
66707;SDS011;53622;0.000;0.000;2022-09-28T09:42:54;6.82;;;1.50;;
66707;SDS011;53622;0.000;0.000;2022-09-28T09:45:47;4.05;;;1.40;;
66707;SDS011;53622;0.000;0.000;2022-09-28T09:48:36;5.07;;;1.63;;
66707;SDS011;53622;0.000;0.000;2022-09-28T09:51:12;1.98;;;1.25;;
66707;SDS011;53622;0.000;0.000;2022-09-28T09:53:48;2.70;;;1.17;;
66707;SDS011;53622;0.000;0.000;2022-09-28T09:56:24;4.88;;;1.20;;
66707;SDS011;53622;0.000;0.000;2022-09-28T09:59:07;3.92;;;1.55;;
66707;SDS011;53622;0.000;0.000;2022-09-28T10:01:59;4.32;;;1.20;;
66707;SDS011;53622;0.000;0.000;2022-09-28T10:04:45;2.78;;;1.30;;
66707;SDS011;53622;0.000;0.000;2022-09-28T10:07:22;3.90;;;1.40;;
66707;SDS011;53622;0.000;0.000;2022-09-28T10:09:55;2.67;;;1.40;;
66707;SDS011;53622;0.000;0.000;2022-09-28T10:12:42;2.30;;;1.30;;
66707;SDS011;53622;0.000;0.000;2022-09-28T10:15:14;2.92;;;1.42;;
66707;SDS011;53622;0.000;0.000;2022-09-28T10:17:59;2.67;;;1.38;;
66707;SDS011;53622;0.000;0.000;2022-09-28T10:20:51;3.72;;;1.20;;
66707;SDS011;53622;0.000;0.000;2022-09-28T10:23:47;3.05;;;1.40;;
66707;SDS011;53622;0.000;0.000;2022-09-28T10:26:24;3.25;;;1.35;;
66707;SDS011;53622;0.000;0.000;2022-09-28T10:29:01;2.55;;;1.35;;
66707;SDS011;53622;0.000;0.000;2022-09-28T10:31:33;4.10;;;1.42;;
66707;SDS011;53622;0.000;0.000;2022-09-28T10:34:33;4.50;;;1.33;;
66707;SDS011;53622;0.000;0.000;2022-09-28T10:37:08;2.80;;;1.20;;
66707;SDS011;53622;0.000;0.000;2022-09-28T10:40:01;5.43;;;1.42;;
66707;SDS011;53622;0.000;0.000;2022-09-28T10:42:35;2.75;;;1.10;;
66707;SDS011;53622;0.000;0.000;2022-09-28T10:45:18;5.93;;;1.10;;
66707;SDS011;53622;0.000;0.000;2022-09-28T10:47:49;9.57;;;1.75;;
66707;SDS011;53622;0.000;0.000;2022-09-28T10:50:20;12.85;;;1.70;;
66707;SDS011;53622;0.000;0.000;2022-09-28T10:53:16;9.85;;;1.60;;
66707;SDS011;53622;0.000;0.000;2022-09-28T10:56:17;5.55;;;1.30;;
66707;SDS011;53622;0.000;0.000;2022-09-28T10:58:58;8.35;;;1.50;;
66707;SDS011;53622;0.000;0.000;2022-09-28T11:01:43;9.05;;;1.58;;
66707;SDS011;53622;0.000;0.000;2022-09-28T11:04:17;7.47;;;1.20;;
66707;SDS011;53622;0.000;0.000;2022-09-28T11:06:49;4.53;;;1.42;;
66707;SDS011;53622;0.000;0.000;2022-09-28T11:09:23;6.50;;;1.30;;
66707;SDS011;53622;0.000;0.000;2022-09-28T11:12:02;2.58;;;1.23;;
66707;SDS011;53622;0.000;0.000;2022-09-28T11:14:37;5.40;;;1.15;;
66707;SDS011;53622;0.000;0.000;2022-09-28T11:17:16;6.18;;;1.30;;
66707;SDS011;53622;0.000;0.000;2022-09-28T11:19:52;5.03;;;1.48;;
66707;SDS011;53622;0.000;0.000;2022-09-28T11:22:23;4.55;;;1.30;;
66707;SDS011;53622;0.000;0.000;2022-09-28T11:25:13;3.95;;;1.20;;
66707;SDS011;53622;0.000;0.000;2022-09-28T11:27:56;2.70;;;1.10;;
66707;SDS011;53622;0.000;0.000;2022-09-28T11:30:30;2.53;;;1.00;;
66707;SDS011;53622;0.000;0.000;2022-09-28T11:33:28;2.25;;;0.98;;
66707;SDS011;53622;0.000;0.000;2022-09-28T11:36:18;3.90;;;1.00;;
66707;SDS011;53622;0.000;0.000;2022-09-28T11:38:57;2.47;;;1.10;;
66707;SDS011;53622;0.000;0.000;2022-09-28T11:41:54;5.35;;;1.30;;
66707;SDS011;53622;0.000;0.000;2022-09-28T11:44:41;8.27;;;1.30;;
66707;SDS011;53622;0.000;0.000;2022-09-28T11:47:23;3.78;;;0.82;;
66707;SDS011;53622;0.000;0.000;2022-09-28T11:50:22;2.75;;;0.82;;
66707;SDS011;53622;0.000;0.000;2022-09-28T11:53:03;4.65;;;1.50;;
66707;SDS011;53622;0.000;0.000;2022-09-28T11:55:42;2.95;;;1.00;;
66707;SDS011;53622;0.000;0.000;2022-09-28T11:58:18;3.78;;;1.02;;
66707;SDS011;53622;0.000;0.000;2022-09-28T12:00:55;6.25;;;1.40;;
66707;SDS011;53622;0.000;0.000;2022-09-28T12:03:47;3.63;;;0.98;;
66707;SDS011;53622;0.000;0.000;2022-09-28T12:06:21;1.10;;;0.80;;
66707;SDS011;53622;0.000;0.000;2022-09-28T12:08:55;3.42;;;0.90;;
66707;SDS011;53622;0.000;0.000;2022-09-28T12:12:11;1.75;;;0.80;;
66707;SDS011;53622;0.000;0.000;2022-09-28T12:14:48;2.83;;;1.10;;
66707;SDS011;53622;0.000;0.000;2022-09-28T12:17:23;1.80;;;0.82;;
66707;SDS011;53622;0.000;0.000;2022-09-28T12:20:00;2.90;;;0.88;;
66707;SDS011;53622;0.000;0.000;2022-09-28T12:22:35;2.15;;;0.90;;
66707;SDS011;53622;0.000;0.000;2022-09-28T12:25:11;3.83;;;1.13;;
66707;SDS011;53622;0.000;0.000;2022-09-28T12:27:44;7.25;;;1.10;;
66707;SDS011;53622;0.000;0.000;2022-09-28T12:30:17;3.13;;;1.00;;
66707;SDS011;53622;0.000;0.000;2022-09-28T12:32:49;3.65;;;1.08;;
66707;SDS011;53622;0.000;0.000;2022-09-28T12:35:27;4.13;;;1.00;;
66707;SDS011;53622;0.000;0.000;2022-09-28T12:38:13;6.85;;;1.15;;
66707;SDS011;53622;0.000;0.000;2022-09-28T12:41:03;3.97;;;0.80;;
66707;SDS011;53622;0.000;0.000;2022-09-28T12:46:43;2.53;;;0.73;;
66707;SDS011;53622;0.000;0.000;2022-09-28T12:49:26;1.48;;;0.60;;
66707;SDS011;53622;0.000;0.000;2022-09-28T12:52:35;1.80;;;0.75;;
66707;SDS011;53622;0.000;0.000;2022-09-28T12:55:18;2.17;;;0.88;;
66707;SDS011;53622;0.000;0.000;2022-09-28T12:58:19;2.78;;;0.82;;
66707;SDS011;53622;0.000;0.000;2022-09-28T13:01:02;1.60;;;0.82;;
66707;SDS011;53622;0.000;0.000;2022-09-28T13:03:47;2.45;;;1.00;;
66707;SDS011;53622;0.000;0.000;2022-09-28T13:06:35;3.95;;;1.08;;
66707;SDS011;53622;0.000;0.000;2022-09-28T13:09:21;4.72;;;1.00;;
66707;SDS011;53622;0.000;0.000;2022-09-28T13:12:03;3.25;;;1.00;;
66707;SDS011;53622;0.000;0.000;2022-09-28T13:18:05;3.55;;;0.90;;
66707;SDS011;53622;0.000;0.000;2022-09-28T13:20:43;4.35;;;0.70;;
66707;SDS011;53622;0.000;0.000;2022-09-28T13:23:26;2.85;;;0.93;;
66707;SDS011;53622;0.000;0.000;2022-09-28T13:26:07;4.43;;;1.10;;
66707;SDS011;53622;0.000;0.000;2022-09-28T13:28:44;2.00;;;0.80;;
66707;SDS011;53622;0.000;0.000;2022-09-28T13:31:16;2.45;;;0.90;;
66707;SDS011;53622;0.000;0.000;2022-09-28T13:33:48;3.45;;;0.85;;
66707;SDS011;53622;0.000;0.000;2022-09-28T13:36:35;2.42;;;0.80;;
66707;SDS011;53622;0.000;0.000;2022-09-28T13:42:03;3.60;;;1.02;;
66707;SDS011;53622;0.000;0.000;2022-09-28T13:44:50;2.90;;;0.77;;
66707;SDS011;53622;0.000;0.000;2022-09-28T13:47:41;1.75;;;0.80;;
66707;SDS011;53622;0.000;0.000;2022-09-28T13:50:26;2.15;;;0.70;;
66707;SDS011;53622;0.000;0.000;2022-09-28T13:53:07;1.80;;;0.70;;
66707;SDS011;53622;0.000;0.000;2022-09-28T13:55:51;2.63;;;0.80;;
66707;SDS011;53622;0.000;0.000;2022-09-28T13:58:26;1.77;;;0.80;;
66707;SDS011;53622;0.000;0.000;2022-09-28T14:01:01;1.83;;;0.73;;
66707;SDS011;53622;0.000;0.000;2022-09-28T14:03:42;2.33;;;0.63;;
66707;SDS011;53622;0.000;0.000;2022-09-28T14:06:21;1.10;;;0.77;;
66707;SDS011;53622;0.000;0.000;2022-09-28T14:09:05;2.58;;;0.85;;
66707;SDS011;53622;0.000;0.000;2022-09-28T14:11:53;2.90;;;0.70;;
66707;SDS011;53622;0.000;0.000;2022-09-28T14:20:33;1.95;;;0.77;;
66707;SDS011;53622;0.000;0.000;2022-09-28T14:29:20;3.45;;;0.70;;
66707;SDS011;53622;0.000;0.000;2022-09-28T14:31:56;3.05;;;0.70;;
66707;SDS011;53622;0.000;0.000;2022-09-28T14:34:32;1.75;;;0.80;;
66707;SDS011;53622;0.000;0.000;2022-09-28T14:37:04;2.63;;;0.90;;
66707;SDS011;53622;0.000;0.000;2022-09-28T14:40:07;4.07;;;0.60;;
66707;SDS011;53622;0.000;0.000;2022-09-28T14:48:57;6.03;;;0.90;;
66707;SDS011;53622;0.000;0.000;2022-09-28T14:51:42;4.05;;;0.82;;
66707;SDS011;53622;0.000;0.000;2022-09-28T14:54:25;2.60;;;0.80;;
66707;SDS011;53622;0.000;0.000;2022-09-28T14:57:05;3.95;;;0.80;;
66707;SDS011;53622;0.000;0.000;2022-09-28T14:59:43;5.10;;;0.98;;
66707;SDS011;53622;0.000;0.000;2022-09-28T15:02:23;4.57;;;0.80;;
66707;SDS011;53622;0.000;0.000;2022-09-28T15:04:57;3.03;;;0.77;;
66707;SDS011;53622;0.000;0.000;2022-09-28T15:07:42;1.85;;;0.60;;
66707;SDS011;53622;0.000;0.000;2022-09-28T15:10:18;3.38;;;0.70;;
66707;SDS011;53622;0.000;0.000;2022-09-28T15:12:54;1.98;;;0.73;;
66707;SDS011;53622;0.000;0.000;2022-09-28T15:15:25;1.55;;;0.73;;
66707;SDS011;53622;0.000;0.000;2022-09-28T15:18:02;3.75;;;0.60;;
66707;SDS011;53622;0.000;0.000;2022-09-28T15:20:40;1.02;;;0.77;;
66707;SDS011;53622;0.000;0.000;2022-09-28T15:23:22;1.92;;;0.70;;
66707;SDS011;53622;0.000;0.000;2022-09-28T15:25:54;5.63;;;0.70;;
66707;SDS011;53622;0.000;0.000;2022-09-28T15:28:23;1.55;;;0.70;;
66707;SDS011;53622;0.000;0.000;2022-09-28T15:30:57;4.07;;;1.00;;
66707;SDS011;53622;0.000;0.000;2022-09-28T15:33:28;1.73;;;0.65;;
66707;SDS011;53622;0.000;0.000;2022-09-28T15:36:19;2.28;;;0.70;;
66707;SDS011;53622;0.000;0.000;2022-09-28T15:38:53;2.03;;;0.90;;
66707;SDS011;53622;0.000;0.000;2022-09-28T15:41:25;1.83;;;0.52;;
66707;SDS011;53622;0.000;0.000;2022-09-28T15:44:05;4.38;;;0.70;;
66707;SDS011;53622;0.000;0.000;2022-09-28T15:46:45;1.88;;;0.60;;
66707;SDS011;53622;0.000;0.000;2022-09-28T15:49:21;3.55;;;0.50;;
66707;SDS011;53622;0.000;0.000;2022-09-28T15:51:53;0.70;;;0.50;;
66707;SDS011;53622;0.000;0.000;2022-09-28T15:54:24;2.20;;;0.45;;
66707;SDS011;53622;0.000;0.000;2022-09-28T15:56:58;0.90;;;0.50;;
66707;SDS011;53622;0.000;0.000;2022-09-28T15:59:30;4.65;;;0.63;;
66707;SDS011;53622;0.000;0.000;2022-09-28T16:02:01;2.35;;;0.40;;
66707;SDS011;53622;0.000;0.000;2022-09-28T16:04:45;2.83;;;0.60;;
66707;SDS011;53622;0.000;0.000;2022-09-28T16:07:18;1.45;;;0.60;;
66707;SDS011;53622;0.000;0.000;2022-09-28T16:09:57;2.42;;;0.52;;
66707;SDS011;53622;0.000;0.000;2022-09-28T16:12:39;2.30;;;0.52;;
66707;SDS011;53622;0.000;0.000;2022-09-28T16:15:13;3.85;;;0.52;;
66707;SDS011;53622;0.000;0.000;2022-09-28T16:17:50;8.23;;;1.00;;
66707;SDS011;53622;0.000;0.000;2022-09-28T16:20:24;3.88;;;0.70;;
66707;SDS011;53622;0.000;0.000;2022-09-28T16:22:58;5.28;;;0.82;;
66707;SDS011;53622;0.000;0.000;2022-09-28T16:25:32;6.47;;;0.90;;
66707;SDS011;53622;0.000;0.000;2022-09-28T16:28:05;15.38;;;1.27;;
66707;SDS011;53622;0.000;0.000;2022-09-28T16:30:37;12.00;;;1.00;;
66707;SDS011;53622;0.000;0.000;2022-09-28T16:33:36;4.00;;;0.57;;
66707;SDS011;53622;0.000;0.000;2022-09-28T16:36:09;3.55;;;0.70;;
66707;SDS011;53622;0.000;0.000;2022-09-28T16:38:44;6.72;;;0.70;;
66707;SDS011;53622;0.000;0.000;2022-09-28T16:41:13;4.38;;;0.70;;